createdAt,value
2018-03-11T00:02:28.759Z,26.43
2018-03-11T00:04:59.724Z,30.63
2018-03-11T00:07:30.730Z,29.93
2018-03-11T00:10:01.725Z,29.33
2018-03-11T00:12:32.757Z,29.33
2018-03-11T00:15:03.781Z,25.47
2018-03-11T00:17:34.858Z,26.27
2018-03-11T00:20:05.841Z,25.33
2018-03-11T00:22:36.819Z,26.13
2018-03-11T00:25:07.815Z,25.87
2018-03-11T00:27:38.843Z,24.60
2018-03-11T00:30:09.844Z,24.07
2018-03-11T00:32:40.831Z,26.10
2018-03-11T00:35:11.819Z,23.93
2018-03-11T00:37:42.807Z,22.40
2018-03-11T00:40:13.855Z,21.93
2018-03-11T00:42:44.857Z,21.73
2018-03-11T00:45:15.799Z,23.67
2018-03-11T00:47:46.789Z,22.87
2018-03-11T00:50:17.769Z,22.70
2018-03-11T00:52:48.784Z,24.30
2018-03-11T00:55:19.768Z,23.50
2018-03-11T00:57:50.783Z,22.97
2018-03-11T01:00:21.748Z,24.03
2018-03-11T01:02:52.777Z,25.03
2018-03-11T01:05:23.803Z,24.80
2018-03-11T01:07:54.863Z,23.67
2018-03-11T01:10:25.823Z,24.10
2018-03-11T01:12:56.845Z,25.13
2018-03-11T01:15:27.842Z,23.40
2018-03-11T01:17:58.873Z,24.63
2018-03-11T01:20:29.877Z,24.10
2018-03-11T01:23:00.935Z,23.93
2018-03-11T01:25:31.912Z,22.23
2018-03-11T01:28:02.907Z,22.30
2018-03-11T01:30:33.908Z,23.03
2018-03-11T01:33:04.890Z,22.37
2018-03-11T01:35:35.907Z,24.27
2018-03-11T01:38:07.791Z,22.63
2018-03-11T01:40:38.784Z,25.57
2018-03-11T01:43:09.763Z,25.63
2018-03-11T01:45:40.758Z,26.10
2018-03-11T01:48:11.731Z,26.47
2018-03-11T01:50:42.705Z,28.23
2018-03-11T01:53:13.720Z,27.80
2018-03-11T01:55:44.710Z,30.50
2018-03-11T01:58:15.664Z,30.23
2018-03-11T02:00:46.686Z,31.53
2018-03-11T02:03:17.675Z,32.90
2018-03-11T02:05:48.644Z,35.23
2018-03-11T02:08:19.642Z,35.27
2018-03-11T02:10:50.599Z,39.27
2018-03-11T02:13:21.552Z,39.20
2018-03-11T02:15:52.504Z,39.47
2018-03-11T02:18:23.479Z,39.90
2018-03-11T02:20:54.471Z,41.00
2018-03-11T02:23:25.460Z,39.73
2018-03-11T02:25:56.453Z,43.20
2018-03-11T02:28:27.440Z,42.07
2018-03-11T02:30:58.459Z,43.00
2018-03-11T02:33:29.441Z,48.10
2018-03-11T02:36:00.425Z,46.03
2018-03-11T02:38:31.438Z,46.70
2018-03-11T02:41:02.419Z,45.37
2018-03-11T02:43:33.346Z,47.50
2018-03-11T02:46:04.406Z,47.23
2018-03-11T02:48:35.464Z,46.67
2018-03-11T02:51:06.477Z,49.47
2018-03-11T02:53:37.495Z,50.07
2018-03-11T02:56:08.481Z,49.47
2018-03-11T02:58:39.428Z,49.53
2018-03-11T03:01:10.375Z,51.60
2018-03-11T03:03:41.350Z,54.83
2018-03-11T03:06:12.320Z,49.27
2018-03-11T03:08:43.314Z,50.13
2018-03-11T03:11:14.321Z,52.23
2018-03-11T03:13:45.347Z,50.73
2018-03-11T03:16:16.316Z,52.87
2018-03-11T03:18:47.301Z,51.37
2018-03-11T03:21:18.306Z,51.33
2018-03-11T03:23:49.414Z,49.90
2018-03-11T03:26:20.399Z,49.80
2018-03-11T03:28:51.398Z,50.47
2018-03-11T03:31:22.402Z,50.90
2018-03-11T03:33:53.379Z,57.37
2018-03-11T03:36:24.420Z,61.30
2018-03-11T03:38:55.419Z,60.13
2018-03-11T03:41:26.454Z,56.60
2018-03-11T03:43:57.430Z,56.30
2018-03-11T03:46:28.451Z,53.73
2018-03-11T03:48:59.463Z,59.87
2018-03-11T03:51:30.461Z,54.90
2018-03-11T03:54:01.465Z,58.43
2018-03-11T03:56:32.479Z,55.27
2018-03-11T03:59:03.454Z,59.27
2018-03-11T04:01:34.455Z,56.37
2018-03-11T04:04:05.411Z,60.37
2018-03-11T04:06:36.388Z,57.13
2018-03-11T04:09:07.380Z,57.83
2018-03-11T04:11:38.341Z,55.47
2018-03-11T04:14:09.337Z,56.83
2018-03-11T04:16:40.324Z,55.77
2018-03-11T04:19:11.303Z,54.07
2018-03-11T04:21:42.310Z,56.70
2018-03-11T04:24:13.278Z,54.37
2018-03-11T04:26:44.310Z,54.20
2018-03-11T04:29:15.292Z,56.70
2018-03-11T04:31:46.328Z,58.23
2018-03-11T04:34:17.315Z,53.27
2018-03-11T04:36:48.346Z,52.93
2018-03-11T04:39:19.404Z,52.80
2018-03-11T04:41:50.377Z,50.80
2018-03-11T04:44:21.403Z,51.33
2018-03-11T04:46:52.383Z,51.03
2018-03-11T04:49:23.418Z,51.60
2018-03-11T04:51:54.457Z,52.13
2018-03-11T04:54:25.433Z,52.13
2018-03-11T04:56:56.498Z,53.23
2018-03-11T04:59:27.513Z,55.83
2018-03-11T05:01:58.498Z,60.37
2018-03-11T05:04:29.531Z,59.37
2018-03-11T05:07:00.527Z,60.03
2018-03-11T05:09:31.498Z,59.27
2018-03-11T05:12:02.517Z,58.13
2018-03-11T05:14:33.544Z,59.23
2018-03-11T05:17:04.504Z,55.20
2018-03-11T05:19:35.499Z,59.83
2018-03-11T05:22:06.492Z,55.63
2018-03-11T05:24:37.529Z,51.40
2018-03-11T05:27:08.553Z,51.97
2018-03-11T05:29:39.555Z,52.03
2018-03-11T05:32:10.520Z,51.50
2018-03-11T05:34:41.517Z,50.50
2018-03-11T05:37:12.575Z,47.20
2018-03-11T05:39:43.601Z,44.80
2018-03-11T05:42:14.612Z,41.50
2018-03-11T05:44:45.590Z,40.67
2018-03-11T05:47:16.619Z,40.13
2018-03-11T05:49:47.580Z,37.23
2018-03-11T05:52:18.555Z,38.10
2018-03-11T05:54:49.549Z,40.37
2018-03-11T05:57:20.579Z,37.73
2018-03-11T05:59:51.549Z,39.53
2018-03-11T06:02:22.530Z,39.20
2018-03-11T06:04:53.503Z,39.17
2018-03-11T06:07:24.481Z,38.10
2018-03-11T06:09:55.506Z,38.33
2018-03-11T06:12:26.452Z,41.97
2018-03-11T06:14:57.468Z,41.70
2018-03-11T06:17:28.438Z,41.17
2018-03-11T06:19:59.404Z,42.10
2018-03-11T06:22:30.397Z,41.80
2018-03-11T06:25:01.414Z,42.27
2018-03-11T06:27:32.413Z,40.73
2018-03-11T06:30:03.445Z,40.60
2018-03-11T06:32:34.434Z,40.57
2018-03-11T06:35:05.452Z,39.30
2018-03-11T06:37:36.473Z,37.13
2018-03-11T06:40:07.521Z,37.27
2018-03-11T06:42:38.529Z,38.77
2018-03-11T06:45:09.493Z,36.93
2018-03-11T06:47:40.461Z,33.73
2018-03-11T06:50:11.401Z,35.70
2018-03-11T06:52:42.408Z,35.27
2018-03-11T06:55:13.400Z,35.67
2018-03-11T06:57:44.427Z,34.20
2018-03-11T07:00:15.415Z,31.20
2018-03-11T07:02:46.379Z,32.57
2018-03-11T07:05:17.367Z,30.63
2018-03-11T07:07:48.393Z,29.47
2018-03-11T07:10:19.415Z,29.57
2018-03-11T07:12:50.465Z,27.90
2018-03-11T07:15:21.494Z,26.87
2018-03-11T07:17:52.517Z,25.53
2018-03-11T07:20:23.559Z,23.83
2018-03-11T07:22:54.525Z,23.23
2018-03-11T07:25:25.530Z,23.33
2018-03-11T07:28:03.418Z,23.23
2018-03-11T07:30:34.455Z,20.97
2018-03-11T07:33:05.448Z,19.40
2018-03-11T07:35:36.464Z,20.30
2018-03-11T07:38:07.532Z,20.70
2018-03-11T07:40:38.522Z,19.37
2018-03-11T07:43:09.531Z,18.37
2018-03-11T07:45:40.535Z,19.93
2018-03-11T07:48:11.516Z,19.17
2018-03-11T07:50:42.514Z,18.23
2018-03-11T07:53:13.488Z,17.73
2018-03-11T07:55:44.473Z,16.80
2018-03-11T07:58:15.463Z,17.57
2018-03-11T08:00:46.460Z,16.97
2018-03-11T08:03:17.489Z,18.03
2018-03-11T08:05:48.473Z,17.43
2018-03-11T08:08:19.487Z,16.63
2018-03-11T08:10:50.477Z,17.07
2018-03-11T08:13:21.474Z,17.43
2018-03-11T08:15:52.450Z,17.20
2018-03-11T08:18:23.486Z,15.47
2018-03-11T08:20:54.488Z,16.13
2018-03-11T08:23:25.436Z,15.77
2018-03-11T08:25:56.453Z,14.83
2018-03-11T08:28:27.439Z,14.03
2018-03-11T08:30:58.408Z,15.37
2018-03-11T08:33:29.390Z,14.90
2018-03-11T08:36:00.399Z,14.37
2018-03-11T08:38:31.416Z,13.67
2018-03-11T08:41:02.441Z,14.37
2018-03-11T08:43:33.423Z,13.13
2018-03-11T08:46:04.391Z,12.37
2018-03-11T08:48:35.362Z,13.35
2018-03-11T08:51:06.311Z,12.63
2018-03-11T08:53:37.421Z,12.00
2018-03-11T08:56:08.408Z,12.60
2018-03-11T08:58:39.402Z,12.10
2018-03-11T09:01:10.373Z,11.87
2018-03-11T09:03:41.414Z,11.87
2018-03-11T09:06:12.416Z,11.37
2018-03-11T09:08:43.416Z,12.10
2018-03-11T09:11:14.409Z,11.73
2018-03-11T09:13:45.396Z,9.97
2018-03-11T09:16:16.366Z,10.33
2018-03-11T09:18:47.406Z,10.90
2018-03-11T09:21:18.354Z,11.17
2018-03-11T09:23:49.372Z,12.17
2018-03-11T09:26:20.364Z,11.60
2018-03-11T09:28:51.435Z,10.83
2018-03-11T09:31:22.455Z,10.47
2018-03-11T09:33:53.428Z,10.83
2018-03-11T09:36:24.467Z,12.80
2018-03-11T09:38:55.552Z,10.77
2018-03-11T09:41:26.531Z,10.97
2018-03-11T09:43:57.500Z,10.23
2018-03-11T09:46:28.542Z,10.53
2018-03-11T09:48:59.610Z,10.03
2018-03-11T09:51:30.642Z,9.70
2018-03-11T09:54:01.665Z,10.03
2018-03-11T09:56:32.691Z,11.17
2018-03-11T09:59:03.734Z,9.97
2018-03-11T10:01:34.706Z,9.83
2018-03-11T10:04:05.729Z,10.17
2018-03-11T10:06:36.751Z,10.33
2018-03-11T10:09:07.713Z,10.07
2018-03-11T10:11:38.745Z,10.90
2018-03-11T10:14:09.748Z,9.80
2018-03-11T10:16:40.699Z,10.67
2018-03-11T10:19:11.712Z,11.10
2018-03-11T10:21:42.726Z,9.93
2018-03-11T10:24:13.682Z,10.27
2018-03-11T10:26:44.683Z,10.27
2018-03-11T10:29:15.682Z,10.77
2018-03-11T10:31:46.703Z,11.77
2018-03-11T10:34:17.687Z,10.63
2018-03-11T10:36:48.726Z,10.43
2018-03-11T10:39:19.773Z,11.07
2018-03-11T10:41:50.761Z,10.23
2018-03-11T10:44:21.719Z,9.60
2018-03-11T10:46:52.742Z,10.03
2018-03-11T10:49:23.732Z,10.10
2018-03-11T10:51:55.411Z,10.00
2018-03-11T10:54:26.395Z,9.67
2018-03-11T10:56:57.376Z,9.73
2018-03-11T10:59:28.377Z,9.77
2018-03-11T11:05:06.266Z,9.30
2018-03-11T11:07:44.266Z,10.13
2018-03-11T11:10:15.312Z,9.07
2018-03-11T11:12:46.321Z,10.63
2018-03-11T11:15:17.335Z,9.63
2018-03-11T11:17:48.391Z,9.47
2018-03-11T11:20:19.376Z,9.57
2018-03-11T11:22:50.395Z,9.63
2018-03-11T11:25:21.335Z,9.50
2018-03-11T11:27:52.371Z,9.57
2018-03-11T11:30:23.383Z,9.73
2018-03-11T11:32:54.368Z,9.97
2018-03-11T11:35:25.389Z,9.73
2018-03-11T11:37:56.668Z,9.93
2018-03-11T11:40:27.686Z,10.07
2018-03-11T11:42:58.689Z,9.50
2018-03-11T11:45:29.713Z,9.07
2018-03-11T11:48:00.751Z,9.80
2018-03-11T11:50:31.848Z,10.73
2018-03-11T11:53:02.825Z,10.13
2018-03-11T11:55:33.945Z,10.70
2018-03-11T11:58:04.981Z,9.50
2018-03-11T12:00:35.987Z,9.10
2018-03-11T12:03:07.000Z,10.33
2018-03-11T12:05:37.994Z,9.30
2018-03-11T12:08:08.988Z,10.00
2018-03-11T12:10:39.967Z,10.17
2018-03-11T12:13:10.983Z,9.03
2018-03-11T12:15:41.975Z,10.27
2018-03-11T12:18:12.972Z,9.60
2018-03-11T12:20:44.005Z,9.77
2018-03-11T12:23:15.004Z,9.60
2018-03-11T12:25:46.025Z,9.60
2018-03-11T12:28:17.023Z,9.77
2018-03-11T12:30:48.040Z,8.50
2018-03-11T12:33:18.999Z,8.43
2018-03-11T12:35:49.972Z,8.50
2018-03-11T12:38:20.998Z,8.70
2018-03-11T12:40:52.063Z,9.20
2018-03-11T12:43:23.060Z,10.10
2018-03-11T12:45:54.096Z,9.40
2018-03-11T12:48:25.097Z,9.63
2018-03-11T12:50:56.132Z,10.17
2018-03-11T12:53:27.110Z,8.83
2018-03-11T12:55:58.095Z,8.87
2018-03-11T12:58:29.036Z,10.13
2018-03-11T13:01:00.018Z,9.40
2018-03-11T13:03:30.965Z,9.50
2018-03-11T13:06:01.956Z,9.27
2018-03-11T13:08:32.927Z,9.90
2018-03-11T13:11:03.888Z,10.47
2018-03-11T13:13:34.826Z,8.80
2018-03-11T13:16:05.809Z,9.60
2018-03-11T13:18:36.743Z,8.67
2018-03-11T13:21:09.599Z,7.93
2018-03-11T13:23:40.588Z,8.00
2018-03-11T13:26:11.558Z,8.03
2018-03-11T13:28:47.379Z,8.50
2018-03-11T13:31:18.303Z,10.33
2018-03-11T13:34:01.742Z,8.13
2018-03-11T13:36:32.660Z,8.33
2018-03-11T13:39:15.922Z,8.80
2018-03-11T13:41:46.902Z,7.77
2018-03-11T13:44:17.865Z,8.10
2018-03-11T13:47:01.057Z,8.37
2018-03-11T13:49:38.990Z,8.90
2018-03-11T13:52:22.428Z,7.97
2018-03-11T13:54:53.407Z,8.20
2018-03-11T14:00:36.688Z,8.43
2018-03-11T14:03:07.722Z,9.60
2018-03-11T14:05:38.705Z,9.37
2018-03-11T14:08:09.733Z,8.97
2018-03-11T14:10:40.727Z,9.70
2018-03-11T14:13:11.735Z,9.20
2018-03-11T14:15:42.710Z,8.37
2018-03-11T14:18:13.719Z,7.57
2018-03-11T14:20:44.720Z,8.10
2018-03-11T14:23:15.717Z,8.87
2018-03-11T14:25:46.726Z,12.33
2018-03-11T14:28:17.751Z,8.87
2018-03-11T14:30:48.751Z,9.23
2018-03-11T14:33:19.731Z,9.97
2018-03-11T14:35:50.773Z,10.10
2018-03-11T14:38:21.746Z,9.47
2018-03-11T14:40:52.825Z,8.93
2018-03-11T14:43:23.801Z,10.13
2018-03-11T14:46:01.722Z,10.47
2018-03-11T14:48:32.755Z,10.90
2018-03-11T14:51:03.749Z,9.80
2018-03-11T14:53:34.729Z,11.50
2018-03-11T14:56:05.693Z,9.60
2018-03-11T14:58:36.740Z,10.93
2018-03-11T15:01:07.720Z,10.07
2018-03-11T15:03:38.729Z,9.93
2018-03-11T15:06:09.741Z,10.77
2018-03-11T15:08:40.794Z,10.23
2018-03-11T15:11:11.806Z,10.27
2018-03-11T15:13:42.813Z,11.50
2018-03-11T15:16:13.824Z,9.33
2018-03-11T15:18:44.811Z,9.67
2018-03-11T15:21:15.857Z,11.30
2018-03-11T15:23:46.800Z,10.37
2018-03-11T15:26:17.830Z,10.47
2018-03-11T15:28:48.793Z,11.53
2018-03-11T15:31:19.824Z,10.57
2018-03-11T15:33:50.834Z,10.00
2018-03-11T15:36:21.831Z,9.97
2018-03-11T15:38:52.829Z,9.73
2018-03-11T15:41:23.818Z,11.67
2018-03-11T15:43:54.803Z,15.00
2018-03-11T15:46:25.798Z,10.63
2018-03-11T15:48:56.799Z,11.90
2018-03-11T15:51:27.802Z,10.17
2018-03-11T15:53:58.821Z,9.87
2018-03-11T15:56:29.840Z,10.00
2018-03-11T15:59:00.822Z,12.53
2018-03-11T16:01:31.802Z,8.97
2018-03-11T16:04:02.821Z,9.87
2018-03-11T16:06:33.835Z,9.47
2018-03-11T16:09:04.849Z,10.87
2018-03-11T16:11:35.816Z,10.67
2018-03-11T16:14:06.810Z,10.47
2018-03-11T16:16:37.814Z,11.07
2018-03-11T16:19:08.813Z,10.83
2018-03-11T16:21:39.822Z,10.27
2018-03-11T16:24:10.865Z,10.07
2018-03-11T16:26:41.891Z,10.03
2018-03-11T16:29:12.881Z,9.83
2018-03-11T16:31:43.856Z,10.83
2018-03-11T16:34:14.865Z,9.83
2018-03-11T16:36:45.831Z,10.03
2018-03-11T16:39:16.857Z,9.97
2018-03-11T16:41:47.841Z,10.90
2018-03-11T16:44:18.848Z,10.40
2018-03-11T16:46:50.908Z,9.97
2018-03-11T16:49:21.879Z,10.80
2018-03-11T16:51:52.893Z,11.33
2018-03-11T16:54:23.936Z,11.80
2018-03-11T16:56:54.865Z,12.20
2018-03-11T16:59:25.841Z,11.60
2018-03-11T17:01:57.612Z,11.90
2018-03-11T17:04:28.643Z,12.23
2018-03-11T17:06:59.650Z,12.07
2018-03-11T17:09:30.595Z,12.57
2018-03-11T17:12:01.608Z,11.27
2018-03-11T17:14:32.551Z,10.90
2018-03-11T17:17:03.613Z,10.63
2018-03-11T17:19:34.586Z,11.57
2018-03-11T17:22:05.646Z,10.60
2018-03-11T17:24:36.613Z,10.20
2018-03-11T17:27:07.667Z,11.93
2018-03-11T17:29:38.638Z,12.97
2018-03-11T17:32:09.682Z,12.90
2018-03-11T17:34:40.669Z,13.13
2018-03-11T17:37:11.675Z,12.90
2018-03-11T17:39:42.734Z,13.57
2018-03-11T17:42:13.730Z,13.50
2018-03-11T17:44:44.711Z,12.80
2018-03-11T17:47:15.779Z,12.30
2018-03-11T17:49:46.793Z,12.60
2018-03-11T17:52:17.779Z,12.23
2018-03-11T17:54:48.801Z,13.40
2018-03-11T17:57:19.859Z,13.90
2018-03-11T17:59:50.840Z,14.00
2018-03-11T18:02:21.861Z,12.13
2018-03-11T18:04:52.898Z,11.93
2018-03-11T18:07:23.894Z,10.87
2018-03-11T18:09:54.914Z,11.70
2018-03-11T18:12:25.946Z,11.90
2018-03-11T18:14:56.960Z,12.40
2018-03-11T18:17:27.942Z,13.13
2018-03-11T18:19:58.960Z,14.37
2018-03-11T18:22:29.959Z,13.23
2018-03-11T18:25:00.978Z,17.60
2018-03-11T18:27:31.971Z,13.97
2018-03-11T18:30:03.030Z,13.83
2018-03-11T18:32:34.017Z,15.77
2018-03-11T18:35:05.032Z,13.03
2018-03-11T18:37:36.055Z,13.33
2018-03-11T18:40:07.061Z,12.17
2018-03-11T18:42:38.111Z,12.13
2018-03-11T18:45:09.087Z,11.77
2018-03-11T18:47:40.131Z,11.33
2018-03-11T18:50:11.106Z,11.33
2018-03-11T18:52:42.075Z,12.33
2018-03-11T18:55:13.093Z,10.67
2018-03-11T18:57:44.073Z,10.77
2018-03-11T19:00:15.067Z,12.30
2018-03-11T19:02:46.072Z,11.40
2018-03-11T19:05:17.037Z,11.83
2018-03-11T19:07:48.100Z,11.27
2018-03-11T19:10:19.219Z,12.77
2018-03-11T19:12:50.243Z,12.70
2018-03-11T19:15:21.242Z,15.83
2018-03-11T19:17:52.201Z,16.40
2018-03-11T19:20:23.192Z,13.20
2018-03-11T19:22:54.183Z,13.77
2018-03-11T19:25:25.188Z,12.87
2018-03-11T19:27:56.219Z,12.80
2018-03-11T19:30:27.197Z,11.17
2018-03-11T19:32:58.204Z,11.13
2018-03-11T19:35:29.255Z,12.53
2018-03-11T19:38:00.221Z,12.63
2018-03-11T19:40:31.200Z,13.87
2018-03-11T19:43:02.241Z,13.33
2018-03-11T19:45:33.304Z,13.93
2018-03-11T19:48:04.345Z,13.23
2018-03-11T19:50:35.314Z,14.43
2018-03-11T19:53:06.374Z,13.97
2018-03-11T19:55:37.408Z,13.90
2018-03-11T19:58:08.441Z,14.60
2018-03-11T20:00:39.414Z,14.50
2018-03-11T20:03:10.425Z,15.00
2018-03-11T20:05:41.506Z,14.23
2018-03-11T20:08:12.504Z,13.87
2018-03-11T20:10:43.517Z,15.27
2018-03-11T20:13:14.500Z,14.73
2018-03-11T20:15:45.532Z,15.30
2018-03-11T20:18:16.513Z,14.57
2018-03-11T20:20:47.500Z,13.23
2018-03-11T20:23:18.487Z,13.53
2018-03-11T20:25:49.533Z,12.73
2018-03-11T20:28:20.533Z,12.50
2018-03-11T20:30:51.506Z,12.87
2018-03-11T20:33:22.506Z,12.10
2018-03-11T20:35:53.509Z,11.40
2018-03-11T20:38:24.491Z,12.13
2018-03-11T20:40:55.469Z,11.40
2018-03-11T20:43:26.500Z,10.30
2018-03-11T20:45:57.524Z,10.70
2018-03-11T20:48:28.517Z,11.33
2018-03-11T20:50:59.532Z,11.53
2018-03-11T20:53:30.570Z,12.07
2018-03-11T20:56:01.600Z,12.37
2018-03-11T20:58:32.634Z,10.37
2018-03-11T21:01:03.679Z,10.73
2018-03-11T21:03:34.685Z,10.27
2018-03-11T21:06:05.764Z,11.50
2018-03-11T21:08:36.795Z,10.53
2018-03-11T21:11:07.859Z,10.80
2018-03-11T21:13:38.842Z,10.70
2018-03-11T21:16:09.831Z,10.60
2018-03-11T21:18:40.813Z,10.70
2018-03-11T21:21:11.837Z,10.83
2018-03-11T21:23:42.807Z,10.53
2018-03-11T21:26:13.834Z,11.07
2018-03-11T21:28:44.848Z,12.33
2018-03-11T21:31:15.874Z,11.80
2018-03-11T21:33:46.855Z,10.83
2018-03-11T21:36:17.834Z,12.00
2018-03-11T21:38:48.795Z,12.10
2018-03-11T21:41:19.778Z,12.20
2018-03-11T21:43:50.805Z,12.47
2018-03-11T21:46:21.863Z,12.27
2018-03-11T21:48:52.879Z,11.40
2018-03-11T21:51:23.890Z,11.87
2018-03-11T21:53:54.851Z,11.33
2018-03-11T21:56:25.840Z,10.97
2018-03-11T21:58:56.781Z,12.10
2018-03-11T22:01:27.746Z,12.20
2018-03-11T22:03:58.812Z,13.13
2018-03-11T22:06:29.763Z,11.67
2018-03-11T22:09:00.789Z,12.67
2018-03-11T22:11:31.768Z,11.93
2018-03-11T22:14:02.773Z,13.23
2018-03-11T22:16:33.756Z,12.77
2018-03-11T22:19:04.718Z,13.17
2018-03-11T22:21:35.692Z,13.00
2018-03-11T22:24:06.682Z,14.70
2018-03-11T22:26:37.603Z,12.60
2018-03-11T22:29:08.643Z,14.43
2018-03-11T22:31:39.687Z,12.80
2018-03-11T22:34:10.650Z,11.90
2018-03-11T22:36:41.648Z,11.90
2018-03-11T22:39:12.649Z,12.83
2018-03-11T22:41:43.690Z,14.57
2018-03-11T22:44:14.661Z,11.90
2018-03-11T22:46:45.658Z,12.40
2018-03-11T22:49:16.670Z,12.37
2018-03-11T22:51:47.664Z,12.73
2018-03-11T22:54:18.650Z,11.60
2018-03-11T22:56:49.594Z,12.40
2018-03-11T22:59:20.611Z,11.10
2018-03-11T23:01:52.116Z,11.30
2018-03-11T23:04:23.132Z,11.43
2018-03-11T23:06:54.168Z,10.93
2018-03-11T23:09:25.182Z,10.90
2018-03-11T23:11:56.175Z,11.37
2018-03-11T23:14:27.194Z,12.37
2018-03-11T23:16:58.193Z,12.73
2018-03-11T23:19:29.156Z,12.07
2018-03-11T23:22:00.129Z,11.90
2018-03-11T23:24:31.152Z,11.80
2018-03-11T23:27:02.144Z,11.40
2018-03-11T23:29:33.146Z,11.87
2018-03-11T23:32:04.110Z,12.50
2018-03-11T23:34:35.103Z,12.80
2018-03-11T23:37:06.060Z,12.70
2018-03-11T23:39:37.092Z,13.13
2018-03-11T23:42:08.059Z,13.10
2018-03-11T23:44:39.050Z,13.77
2018-03-11T23:47:10.054Z,13.67
2018-03-11T23:49:41.062Z,13.30
2018-03-11T23:52:12.056Z,12.67
2018-03-11T23:54:43.011Z,11.37
2018-03-11T23:57:13.986Z,12.23
2018-03-11T23:59:44.980Z,11.53
